sensor_id;sensor_type;location;lat;lon;timestamp;pressure;altitude;pressure_sealevel;temperature;humidity
79455;BME280;68900;52.134;5.420;2023-04-25T00:00:57;101204.69;;;6.75;84.09
79455;BME280;68900;52.134;5.420;2023-04-25T00:26:39;101229.88;;;6.61;84.44
79455;BME280;68900;52.134;5.420;2023-04-25T00:29:12;101231.38;;;6.65;84.54
79455;BME280;68900;52.134;5.420;2023-04-25T00:31:38;101225.78;;;6.69;84.23
79455;BME280;68900;52.134;5.420;2023-04-25T00:34:06;101231.38;;;6.65;84.23
79455;BME280;68900;52.134;5.420;2023-04-25T00:36:33;101230.63;;;6.63;84.41
79455;BME280;68900;52.134;5.420;2023-04-25T00:38:59;101231.38;;;6.65;84.23
79455;BME280;68900;52.134;5.420;2023-04-25T00:41:26;101238.31;;;6.68;84.52
79455;BME280;68900;52.134;5.420;2023-04-25T00:43:54;101226.63;;;6.69;84.19
79455;BME280;68900;52.134;5.420;2023-04-25T00:46:21;101236.41;;;6.70;84.48
79455;BME280;68900;52.134;5.420;2023-04-25T00:52:16;101236.50;;;6.69;84.15
79455;BME280;68900;52.134;5.420;2023-04-25T00:54:57;101239.19;;;6.69;84.17
79455;BME280;68900;52.134;5.420;2023-04-25T00:57:23;101237.38;;;6.69;84.12
79455;BME280;68900;52.134;5.420;2023-04-25T01:06:17;101230.53;;;6.65;84.12
79455;BME280;68900;52.134;5.420;2023-04-25T01:08:43;101229.78;;;6.63;83.99
79455;BME280;68900;52.134;5.420;2023-04-25T01:11:40;101230.22;;;6.57;83.98
79455;BME280;68900;52.134;5.420;2023-04-25T01:14:06;101233.78;;;6.57;84.06
79455;BME280;68900;52.134;5.420;2023-04-25T01:16:33;101239.13;;;6.57;83.66
79455;BME280;68900;52.134;5.420;2023-04-25T01:25:25;101245.69;;;6.53;83.25
79455;BME280;68900;52.134;5.420;2023-04-25T01:27:52;101252.25;;;6.49;83.35
79455;BME280;68900;52.134;5.420;2023-04-25T01:35:45;101249.66;;;6.37;83.45
79455;BME280;68900;52.134;5.420;2023-04-25T01:38:15;101256.94;;;6.35;83.41
79455;BME280;68900;52.134;5.420;2023-04-25T01:40:50;101252.88;;;6.29;83.00
79455;BME280;68900;52.134;5.420;2023-04-25T01:43:18;101249.25;;;6.30;83.16
79455;BME280;68900;52.134;5.420;2023-04-25T01:45:45;101254.94;;;6.26;83.11
79455;BME280;68900;52.134;5.420;2023-04-25T01:54:56;101265.47;;;6.16;83.44
79455;BME280;68900;52.134;5.420;2023-04-25T01:57:23;101269.25;;;6.13;82.74
79455;BME280;68900;52.134;5.420;2023-04-25T01:59:52;101268.41;;;6.13;82.67
79455;BME280;68900;52.134;5.420;2023-04-25T02:06:08;101274.00;;;6.10;83.14
79455;BME280;68900;52.134;5.420;2023-04-25T02:08:44;101276.16;;;6.05;82.92
79455;BME280;68900;52.134;5.420;2023-04-25T02:18:48;101284.84;;;5.96;82.89
79455;BME280;68900;52.134;5.420;2023-04-25T02:21:25;101276.91;;;5.94;83.06
79455;BME280;68900;52.134;5.420;2023-04-25T02:23:54;101285.69;;;5.96;82.90
79455;BME280;68900;52.134;5.420;2023-04-25T02:26:21;101287.38;;;5.97;83.21
79455;BME280;68900;52.134;5.420;2023-04-25T02:28:50;101276.06;;;5.94;83.23
79455;BME280;68900;52.134;5.420;2023-04-25T02:31:17;101282.50;;;5.91;83.18
79455;BME280;68900;52.134;5.420;2023-04-25T02:33:44;101287.84;;;5.91;82.99
79455;BME280;68900;52.134;5.420;2023-04-25T02:36:11;101285.50;;;5.87;83.16
79455;BME280;68900;52.134;5.420;2023-04-25T02:38:52;101287.50;;;5.83;82.93
79455;BME280;68900;52.134;5.420;2023-04-25T02:41:18;101295.75;;;5.80;83.10
79455;BME280;68900;52.134;5.420;2023-04-25T02:43:47;101289.63;;;5.78;83.33
79455;BME280;68900;52.134;5.420;2023-04-25T02:46:14;101292.44;;;5.76;83.50
79455;BME280;68900;52.134;5.420;2023-04-25T02:48:54;101293.50;;;5.74;83.01
79455;BME280;68900;52.134;5.420;2023-04-25T02:51:20;101291.91;;;5.71;82.99
79455;BME280;68900;52.134;5.420;2023-04-25T02:53:47;101284.63;;;5.73;83.12
79455;BME280;68900;52.134;5.420;2023-04-25T02:56:14;101294.50;;;5.73;83.63
79455;BME280;68900;52.134;5.420;2023-04-25T02:58:55;101293.63;;;5.72;83.56
79455;BME280;68900;52.134;5.420;2023-04-25T03:05:53;101298.66;;;5.77;83.28
79455;BME280;68900;52.134;5.420;2023-04-25T03:09:05;101297.91;;;5.75;83.28
79455;BME280;68900;52.134;5.420;2023-04-25T03:26:30;101311.22;;;5.64;83.66
79455;BME280;68900;52.134;5.420;2023-04-25T03:28:57;101310.69;;;5.59;83.58
79455;BME280;68900;52.134;5.420;2023-04-25T03:31:26;101311.72;;;5.56;83.51
79455;BME280;68900;52.134;5.420;2023-04-25T03:39:17;101317.72;;;5.47;83.63
79455;BME280;68900;52.134;5.420;2023-04-25T03:41:43;101316.66;;;5.50;83.85
79455;BME280;68900;52.134;5.420;2023-04-25T04:04:16;101327.91;;;5.55;83.55
79455;BME280;68900;52.134;5.420;2023-04-25T04:06:43;101331.75;;;5.51;83.08
79455;BME280;68900;52.134;5.420;2023-04-25T04:09:09;101340.63;;;5.51;83.83
79455;BME280;68900;52.134;5.420;2023-04-25T04:11:57;101342.75;;;5.46;83.31
79455;BME280;68900;52.134;5.420;2023-04-25T04:14:51;101343.53;;;5.48;83.45
79455;BME280;68900;52.134;5.420;2023-04-25T04:17:27;101351.22;;;5.53;83.51
79455;BME280;68900;52.134;5.420;2023-04-25T04:19:53;101349.50;;;5.52;83.61
79455;BME280;68900;52.134;5.420;2023-04-25T04:22:20;101348.88;;;5.48;83.34
79455;BME280;68900;52.134;5.420;2023-04-25T04:24:58;101350.69;;;5.48;82.83
79455;BME280;68900;52.134;5.420;2023-04-25T04:27:25;101339.03;;;5.49;83.18
79455;BME280;68900;52.134;5.420;2023-04-25T04:29:52;101340.75;;;5.50;82.62
79455;BME280;68900;52.134;5.420;2023-04-25T04:32:19;101352.09;;;5.53;82.65
79455;BME280;68900;52.134;5.420;2023-04-25T04:35:05;101356.50;;;5.54;82.47
79455;BME280;68900;52.134;5.420;2023-04-25T04:40:10;101366.19;;;5.55;82.53
79455;BME280;68900;52.134;5.420;2023-04-25T04:42:36;101363.53;;;5.55;82.59
79455;BME280;68900;52.134;5.420;2023-04-25T04:45:03;101366.00;;;5.58;82.72
79455;BME280;68900;52.134;5.420;2023-04-25T04:47:42;101366.41;;;5.65;82.21
79455;BME280;68900;52.134;5.420;2023-04-25T04:50:10;101370.72;;;5.67;82.27
79455;BME280;68900;52.134;5.420;2023-04-25T04:52:38;101370.50;;;5.70;81.67
79455;BME280;68900;52.134;5.420;2023-04-25T04:56:19;101378.31;;;5.73;81.51
79455;BME280;68900;52.134;5.420;2023-04-25T05:01:38;101390.41;;;5.79;81.34
79455;BME280;68900;52.134;5.420;2023-04-25T05:04:22;101389.34;;;5.82;81.20
79455;BME280;68900;52.134;5.420;2023-04-25T05:07:07;101393.63;;;5.84;81.46
79455;BME280;68900;52.134;5.420;2023-04-25T05:12:25;101404.31;;;5.84;81.39
79455;BME280;68900;52.134;5.420;2023-04-25T05:19:09;101407.97;;;5.83;81.69
79455;BME280;68900;52.134;5.420;2023-04-25T05:22:07;101405.19;;;5.85;81.39
79455;BME280;68900;52.134;5.420;2023-04-25T05:24:45;101415.03;;;5.84;81.34
79455;BME280;68900;52.134;5.420;2023-04-25T05:27:22;101414.31;;;5.82;81.17
79455;BME280;68900;52.134;5.420;2023-04-25T05:29:49;101419.66;;;5.82;81.61
79455;BME280;68900;52.134;5.420;2023-04-25T05:32:16;101420.81;;;5.78;81.23
79455;BME280;68900;52.134;5.420;2023-04-25T05:34:46;101419.84;;;5.79;81.71
79455;BME280;68900;52.134;5.420;2023-04-25T05:37:30;101432.38;;;5.78;81.12
79455;BME280;68900;52.134;5.420;2023-04-25T05:40:12;101430.78;;;5.76;81.28
79455;BME280;68900;52.134;5.420;2023-04-25T05:42:49;101427.88;;;5.79;81.52
79455;BME280;68900;52.134;5.420;2023-04-25T05:45:34;101425.00;;;5.82;81.47
79455;BME280;68900;52.134;5.420;2023-04-25T05:48:01;101424.03;;;5.83;81.74
79455;BME280;68900;52.134;5.420;2023-04-25T05:50:30;101432.53;;;5.90;81.80
79455;BME280;68900;52.134;5.420;2023-04-25T05:53:07;101436.72;;;5.94;81.45
79455;BME280;68900;52.134;5.420;2023-04-25T05:56:10;101442.69;;;5.97;81.11
79455;BME280;68900;52.134;5.420;2023-04-25T05:58:46;101445.06;;;6.02;81.81
79455;BME280;68900;52.134;5.420;2023-04-25T06:01:16;101451.81;;;6.07;81.42
79455;BME280;68900;52.134;5.420;2023-04-25T06:03:42;101455.13;;;6.11;81.61
79455;BME280;68900;52.134;5.420;2023-04-25T06:06:11;101455.13;;;6.11;81.44
79455;BME280;68900;52.134;5.420;2023-04-25T06:12:07;101466.50;;;6.14;81.49
79455;BME280;68900;52.134;5.420;2023-04-25T06:14:40;101463.81;;;6.14;80.71
79455;BME280;68900;52.134;5.420;2023-04-25T06:17:07;101466.28;;;6.17;80.82
79455;BME280;68900;52.134;5.420;2023-04-25T06:19:35;101475.72;;;6.23;80.65
79455;BME280;68900;52.134;5.420;2023-04-25T06:22:02;101470.75;;;6.30;80.88
79455;BME280;68900;52.134;5.420;2023-04-25T06:24:29;101464.22;;;6.34;80.13
79455;BME280;68900;52.134;5.420;2023-04-25T06:27:05;101467.56;;;6.37;80.33
79455;BME280;68900;52.134;5.420;2023-04-25T06:29:35;101466.47;;;6.40;79.72
79455;BME280;68900;52.134;5.420;2023-04-25T06:32:09;101471.59;;;6.43;79.43
79455;BME280;68900;52.134;5.420;2023-04-25T06:34:36;101473.75;;;6.50;79.77
79455;BME280;68900;52.134;5.420;2023-04-25T06:37:09;101471.59;;;6.55;78.71
79455;BME280;68900;52.134;5.420;2023-04-25T06:39:41;101483.72;;;6.61;79.04
79455;BME280;68900;52.134;5.420;2023-04-25T06:42:08;101482.38;;;6.66;78.54
79455;BME280;68900;52.134;5.420;2023-04-25T06:44:35;101477.69;;;6.70;78.02
79455;BME280;68900;52.134;5.420;2023-04-25T06:47:02;101481.09;;;6.72;77.31
79455;BME280;68900;52.134;5.420;2023-04-25T06:49:44;101483.44;;;6.77;77.37
79455;BME280;68900;52.134;5.420;2023-04-25T06:56:10;101489.00;;;6.86;77.56
79455;BME280;68900;52.134;5.420;2023-04-25T06:59:08;101486.72;;;6.93;77.25
79455;BME280;68900;52.134;5.420;2023-04-25T07:01:46;101493.06;;;6.92;76.65
79455;BME280;68900;52.134;5.420;2023-04-25T07:33:44;101527.31;;;7.36;73.97
79455;BME280;68900;52.134;5.420;2023-04-25T07:48:22;101538.84;;;7.73;72.94
79455;BME280;68900;52.134;5.420;2023-04-25T08:00:21;101559.00;;;7.67;68.43
79455;BME280;68900;52.134;5.420;2023-04-25T08:10:11;101575.19;;;7.89;66.24
79455;BME280;68900;52.134;5.420;2023-04-25T08:21:40;101589.22;;;8.17;67.40
79455;BME280;68900;52.134;5.420;2023-04-25T08:39:12;101611.03;;;7.53;66.05
79455;BME280;68900;52.134;5.420;2023-04-25T08:45:46;101624.94;;;7.71;66.59
79455;BME280;68900;52.134;5.420;2023-04-25T08:48:34;101622.09;;;7.73;66.61
79455;BME280;68900;52.134;5.420;2023-04-25T09:00:07;101637.19;;;8.10;63.56
79455;BME280;68900;52.134;5.420;2023-04-25T09:10:17;101641.56;;;8.81;63.64
79455;BME280;68900;52.134;5.420;2023-04-25T09:16:26;101648.56;;;9.28;62.11
79455;BME280;68900;52.134;5.420;2023-04-25T09:23:41;101660.91;;;9.30;59.71
79455;BME280;68900;52.134;5.420;2023-04-25T09:26:21;101659.72;;;9.01;60.61
79455;BME280;68900;52.134;5.420;2023-04-25T09:28:48;101664.34;;;8.99;61.87
79455;BME280;68900;52.134;5.420;2023-04-25T09:31:49;101672.41;;;8.99;61.39
79455;BME280;68900;52.134;5.420;2023-04-25T09:34:53;101668.25;;;8.95;61.29
79455;BME280;68900;52.134;5.420;2023-04-25T09:37:41;101674.84;;;9.02;61.03
79455;BME280;68900;52.134;5.420;2023-04-25T09:40:11;101672.31;;;9.01;60.33
79455;BME280;68900;52.134;5.420;2023-04-25T09:42:56;101670.94;;;8.95;60.74
79455;BME280;68900;52.134;5.420;2023-04-25T09:50:28;101711.50;;;8.35;64.43
79455;BME280;68900;52.134;5.420;2023-04-25T09:53:04;101718.94;;;8.19;64.52
79455;BME280;68900;52.134;5.420;2023-04-25T09:56:03;101720.22;;;8.26;63.66
79455;BME280;68900;52.134;5.420;2023-04-25T09:59:07;101733.13;;;8.21;64.97
79455;BME280;68900;52.134;5.420;2023-04-25T10:01:39;101733.09;;;8.33;65.02
79455;BME280;68900;52.134;5.420;2023-04-25T11:16:37;101745.84;;;9.12;60.88
79455;BME280;68900;52.134;5.420;2023-04-25T11:19:30;101774.28;;;8.93;62.89
79455;BME280;68900;52.134;5.420;2023-04-25T11:25:46;101771.31;;;8.50;66.34
79455;BME280;68900;52.134;5.420;2023-04-25T11:32:25;101781.22;;;8.13;68.28
79455;BME280;68900;52.134;5.420;2023-04-25T11:35:09;101768.09;;;7.84;67.73
79455;BME280;68900;52.134;5.420;2023-04-25T11:37:42;101774.38;;;7.96;68.92
79455;BME280;68900;52.134;5.420;2023-04-25T11:40:09;101776.53;;;8.04;67.10
79455;BME280;68900;52.134;5.420;2023-04-25T11:46:42;101783.06;;;8.49;66.45
79455;BME280;68900;52.134;5.420;2023-04-25T11:49:15;101783.03;;;8.72;65.23
79455;BME280;68900;52.134;5.420;2023-04-25T11:52:09;101773.16;;;8.84;64.10
79455;BME280;68900;52.134;5.420;2023-04-25T11:59:07;101774.63;;;9.34;62.23
79455;BME280;68900;52.134;5.420;2023-04-25T12:12:27;101770.59;;;10.06;58.45
79455;BME280;68900;52.134;5.420;2023-04-25T12:15:17;101769.50;;;9.87;56.88
79455;BME280;68900;52.134;5.420;2023-04-25T12:18:21;101772.31;;;9.96;57.29
79455;BME280;68900;52.134;5.420;2023-04-25T12:21:28;101785.53;;;10.10;57.01
79455;BME280;68900;52.134;5.420;2023-04-25T12:24:16;101779.28;;;10.21;57.55
79455;BME280;68900;52.134;5.420;2023-04-25T12:34:47;101782.38;;;9.83;56.30
79455;BME280;68900;52.134;5.420;2023-04-25T12:37:34;101793.03;;;9.85;56.00
79455;BME280;68900;52.134;5.420;2023-04-25T12:40:12;101789.34;;;9.86;55.66
79455;BME280;68900;52.134;5.420;2023-04-25T12:42:59;101783.72;;;9.89;55.83
79455;BME280;68900;52.134;5.420;2023-04-25T12:45:26;101789.94;;;10.00;55.69
79455;BME280;68900;52.134;5.420;2023-04-25T12:48:14;101790.78;;;10.23;54.93
79455;BME280;68900;52.134;5.420;2023-04-25T12:50:41;101790.03;;;10.32;53.78
79455;BME280;68900;52.134;5.420;2023-04-25T12:53:07;101787.31;;;10.43;54.05
79455;BME280;68900;52.134;5.420;2023-04-25T12:55:47;101782.88;;;10.53;54.36
79455;BME280;68900;52.134;5.420;2023-04-25T12:58:28;101778.16;;;10.67;53.72
79455;BME280;68900;52.134;5.420;2023-04-25T13:01:12;101771.91;;;10.87;52.77
79455;BME280;68900;52.134;5.420;2023-04-25T13:03:40;101783.06;;;10.93;52.41
79455;BME280;68900;52.134;5.420;2023-04-25T13:06:10;101771.91;;;10.87;51.03
79455;BME280;68900;52.134;5.420;2023-04-25T13:08:40;101781.94;;;10.96;51.84
79455;BME280;68900;52.134;5.420;2023-04-25T13:11:21;101780.03;;;10.87;51.35
79455;BME280;68900;52.134;5.420;2023-04-25T13:21:17;101801.56;;;10.34;52.81
79455;BME280;68900;52.134;5.420;2023-04-25T13:23:44;101800.00;;;10.21;51.70
79455;BME280;68900;52.134;5.420;2023-04-25T13:30:11;101795.44;;;10.32;52.04
79455;BME280;68900;52.134;5.420;2023-04-25T13:33:26;101807.47;;;10.28;53.22
79455;BME280;68900;52.134;5.420;2023-04-25T13:36:48;101799.41;;;10.17;53.97
79455;BME280;68900;52.134;5.420;2023-04-25T13:42:05;101799.75;;;10.01;52.04
79455;BME280;68900;52.134;5.420;2023-04-25T13:48:19;101805.78;;;9.94;52.13
79455;BME280;68900;52.134;5.420;2023-04-25T13:51:08;101800.75;;;9.89;51.82
79455;BME280;68900;52.134;5.420;2023-04-25T14:23:19;101812.28;;;9.80;52.82
79455;BME280;68900;52.134;5.420;2023-04-25T14:38:55;101812.03;;;10.59;50.44
79455;BME280;68900;52.134;5.420;2023-04-25T14:41:31;101820.97;;;10.60;48.76
79455;BME280;68900;52.134;5.420;2023-04-25T14:43:58;101822.81;;;10.59;49.64
79455;BME280;68900;52.134;5.420;2023-04-25T14:46:25;101825.75;;;10.68;48.25
79455;BME280;68900;52.134;5.420;2023-04-25T14:49:02;101825.19;;;10.53;46.81
79455;BME280;68900;52.134;5.420;2023-04-25T14:51:40;101827.41;;;10.37;47.92
79455;BME280;68900;52.134;5.420;2023-04-25T14:54:12;101823.16;;;10.34;48.08
79455;BME280;68900;52.134;5.420;2023-04-25T14:56:54;101834.63;;;10.47;49.80
79455;BME280;68900;52.134;5.420;2023-04-25T15:05:34;101822.19;;;10.02;51.52
79455;BME280;68900;52.134;5.420;2023-04-25T15:08:03;101840.19;;;10.12;49.74
79455;BME280;68900;52.134;5.420;2023-04-25T15:10:31;101846.94;;;10.18;47.04
79455;BME280;68900;52.134;5.420;2023-04-25T15:12:58;101832.75;;;10.16;48.87
79455;BME280;68900;52.134;5.420;2023-04-25T15:15:27;101827.09;;;10.08;47.46
79455;BME280;68900;52.134;5.420;2023-04-25T15:17:55;101825.59;;;10.15;48.40
79455;BME280;68900;52.134;5.420;2023-04-25T15:20:42;101838.47;;;10.34;47.43
79455;BME280;68900;52.134;5.420;2023-04-25T15:23:09;101848.03;;;10.38;46.81
79455;BME280;68900;52.134;5.420;2023-04-25T15:28:18;101858.94;;;10.03;48.75
79455;BME280;68900;52.134;5.420;2023-04-25T15:30:47;101860.63;;;10.04;49.79
79455;BME280;68900;52.134;5.420;2023-04-25T15:33:29;101852.44;;;9.94;51.32
79455;BME280;68900;52.134;5.420;2023-04-25T15:36:06;101862.13;;;9.97;52.73
79455;BME280;68900;52.134;5.420;2023-04-25T15:38:32;101863.59;;;10.01;53.17
79455;BME280;68900;52.134;5.420;2023-04-25T15:41:36;101871.31;;;10.05;53.13
79455;BME280;68900;52.134;5.420;2023-04-25T15:44:06;101871.28;;;9.94;53.68
79455;BME280;68900;52.134;5.420;2023-04-25T15:50:46;101873.94;;;9.50;52.18
79455;BME280;68900;52.134;5.420;2023-04-25T15:53:16;101892.53;;;9.42;53.26
79455;BME280;68900;52.134;5.420;2023-04-25T15:55:42;101879.56;;;9.47;53.97
79455;BME280;68900;52.134;5.420;2023-04-25T15:58:15;101886.44;;;9.62;54.75
79455;BME280;68900;52.134;5.420;2023-04-25T16:00:41;101891.97;;;9.71;53.49
79455;BME280;68900;52.134;5.420;2023-04-25T16:03:08;101884.75;;;9.61;52.47
79455;BME280;68900;52.134;5.420;2023-04-25T16:05:37;101887.31;;;9.62;53.73
79455;BME280;68900;52.134;5.420;2023-04-25T16:08:27;101889.88;;;9.64;53.68
79455;BME280;68900;52.134;5.420;2023-04-25T16:10:54;101884.09;;;9.57;53.24
79455;BME280;68900;52.134;5.420;2023-04-25T16:13:23;101890.22;;;9.48;53.42
79455;BME280;68900;52.134;5.420;2023-04-25T16:15:50;101881.41;;;9.46;54.25
79455;BME280;68900;52.134;5.420;2023-04-25T16:18:19;101888.88;;;9.54;53.75
79455;BME280;68900;52.134;5.420;2023-04-25T16:20:46;101887.50;;;9.48;53.95
79455;BME280;68900;52.134;5.420;2023-04-25T16:23:12;101892.78;;;9.39;53.81
79455;BME280;68900;52.134;5.420;2023-04-25T16:25:39;101900.97;;;9.37;55.15
79455;BME280;68900;52.134;5.420;2023-04-25T16:28:13;101899.94;;;9.27;55.71
79455;BME280;68900;52.134;5.420;2023-04-25T16:30:42;101892.13;;;9.24;57.44
79455;BME280;68900;52.134;5.420;2023-04-25T16:33:09;101893.31;;;9.20;56.17
79455;BME280;68900;52.134;5.420;2023-04-25T16:35:36;101906.53;;;9.23;57.28
79455;BME280;68900;52.134;5.420;2023-04-25T16:38:02;101905.53;;;9.13;58.23
79455;BME280;68900;52.134;5.420;2023-04-25T16:40:33;101906.56;;;8.99;58.81
79455;BME280;68900;52.134;5.420;2023-04-25T16:43:05;101901.94;;;9.01;57.99
79455;BME280;68900;52.134;5.420;2023-04-25T16:45:35;101902.56;;;9.05;57.23
79455;BME280;68900;52.134;5.420;2023-04-25T16:48:01;101908.91;;;9.04;57.35
79455;BME280;68900;52.134;5.420;2023-04-25T16:50:28;101910.91;;;9.13;54.33
79455;BME280;68900;52.134;5.420;2023-04-25T16:52:55;101899.41;;;9.11;52.16
79455;BME280;68900;52.134;5.420;2023-04-25T16:55:21;101898.19;;;9.15;51.99
79455;BME280;68900;52.134;5.420;2023-04-25T16:57:48;101897.72;;;9.21;52.76
79455;BME280;68900;52.134;5.420;2023-04-25T17:00:15;101899.88;;;9.16;51.72
79455;BME280;68900;52.134;5.420;2023-04-25T17:02:41;101895.00;;;9.10;52.62
79455;BME280;68900;52.134;5.420;2023-04-25T17:05:08;101897.06;;;9.06;52.22
79455;BME280;68900;52.134;5.420;2023-04-25T17:07:35;101902.13;;;8.98;52.41
79455;BME280;68900;52.134;5.420;2023-04-25T17:20:06;101923.22;;;8.80;53.66
79455;BME280;68900;52.134;5.420;2023-04-25T17:22:36;101923.22;;;8.80;53.90
79455;BME280;68900;52.134;5.420;2023-04-25T17:25:07;101925.66;;;8.83;53.83
79455;BME280;68900;52.134;5.420;2023-04-25T17:27:34;101929.88;;;8.88;54.69
79455;BME280;68900;52.134;5.420;2023-04-25T17:30:03;101927.91;;;8.90;55.86
79455;BME280;68900;52.134;5.420;2023-04-25T17:32:33;101929.22;;;8.84;53.23
79455;BME280;68900;52.134;5.420;2023-04-25T17:35:20;101929.38;;;8.70;53.92
79455;BME280;68900;52.134;5.420;2023-04-25T17:37:49;101938.19;;;8.72;53.81
79455;BME280;68900;52.134;5.420;2023-04-25T17:43:50;101926.34;;;8.74;54.52
79455;BME280;68900;52.134;5.420;2023-04-25T17:50:14;101940.59;;;8.64;55.86
79455;BME280;68900;52.134;5.420;2023-04-25T17:53:02;101943.41;;;8.62;56.20
79455;BME280;68900;52.134;5.420;2023-04-25T17:55:30;101942.88;;;8.57;56.22
79455;BME280;68900;52.134;5.420;2023-04-25T18:12:55;101957.75;;;8.12;57.72
79455;BME280;68900;52.134;5.420;2023-04-25T18:15:24;101959.25;;;8.16;58.26
79455;BME280;68900;52.134;5.420;2023-04-25T18:17:52;101957.31;;;8.18;58.30
79455;BME280;68900;52.134;5.420;2023-04-25T19:09:47;102019.47;;;7.62;61.86
79455;BME280;68900;52.134;5.420;2023-04-25T19:12:14;102018.59;;;7.48;62.31
79455;BME280;68900;52.134;5.420;2023-04-25T19:21:53;102016.03;;;7.33;63.30
79455;BME280;68900;52.134;5.420;2023-04-25T19:24:22;102013.28;;;7.34;64.10
79455;BME280;68900;52.134;5.420;2023-04-25T19:26:54;102013.44;;;7.31;64.05
79455;BME280;68900;52.134;5.420;2023-04-25T19:29:43;102018.72;;;7.33;64.09
79455;BME280;68900;52.134;5.420;2023-04-25T19:32:13;102027.56;;;7.35;64.23
79455;BME280;68900;52.134;5.420;2023-04-25T19:34:40;102035.59;;;7.35;64.08
79455;BME280;68900;52.134;5.420;2023-04-25T19:37:07;102026.69;;;7.34;64.68
79455;BME280;68900;52.134;5.420;2023-04-25T19:39:34;102028.03;;;7.27;64.44
79455;BME280;68900;52.134;5.420;2023-04-25T19:42:04;102036.00;;;7.29;64.39
79455;BME280;68900;52.134;5.420;2023-04-25T19:48:24;102032.69;;;7.11;64.69
79455;BME280;68900;52.134;5.420;2023-04-25T19:53:56;102034.16;;;7.02;65.35
79455;BME280;68900;52.134;5.420;2023-04-25T19:56:22;102036.56;;;7.07;65.14
79455;BME280;68900;52.134;5.420;2023-04-25T20:02:37;102034.06;;;6.90;65.32
79455;BME280;68900;52.134;5.420;2023-04-25T20:05:12;102038.97;;;6.83;65.61
79455;BME280;68900;52.134;5.420;2023-04-25T21:03:44;102056.53;;;6.46;68.47
79455;BME280;68900;52.134;5.420;2023-04-25T21:06:14;102057.56;;;6.44;68.23
79455;BME280;68900;52.134;5.420;2023-04-25T21:08:42;102055.75;;;6.44;68.09
79455;BME280;68900;52.134;5.420;2023-04-25T21:11:09;102055.06;;;6.41;68.61
79455;BME280;68900;52.134;5.420;2023-04-25T21:13:42;102045.66;;;6.34;68.42
79455;BME280;68900;52.134;5.420;2023-04-25T21:16:09;102043.28;;;6.29;68.17
79455;BME280;68900;52.134;5.420;2023-04-25T21:18:35;102048.63;;;6.29;68.29
79455;BME280;68900;52.134;5.420;2023-04-25T21:21:03;102038.97;;;6.27;68.43
79455;BME280;68900;52.134;5.420;2023-04-25T21:23:33;102046.25;;;6.25;68.38
79455;BME280;68900;52.134;5.420;2023-04-25T22:08:51;102069.13;;;5.70;70.53
79455;BME280;68900;52.134;5.420;2023-04-25T22:11:18;102067.50;;;5.68;71.05
79455;BME280;68900;52.134;5.420;2023-04-25T22:13:46;102068.81;;;5.61;70.58
79455;BME280;68900;52.134;5.420;2023-04-25T22:16:14;102073.47;;;5.57;70.65
79455;BME280;68900;52.134;5.420;2023-04-25T22:18:56;102075.97;;;5.60;70.80
79455;BME280;68900;52.134;5.420;2023-04-25T22:21:30;102078.75;;;5.59;70.85
79455;BME280;68900;52.134;5.420;2023-04-25T22:24:00;102079.69;;;5.58;70.83
79455;BME280;68900;52.134;5.420;2023-04-25T22:26:52;102075.63;;;5.51;71.22
79455;BME280;68900;52.134;5.420;2023-04-25T22:29:18;102081.78;;;5.53;71.57
79455;BME280;68900;52.134;5.420;2023-04-25T22:31:45;102079.88;;;5.55;71.04
79455;BME280;68900;52.134;5.420;2023-04-25T22:34:12;102093.34;;;5.53;71.85
79455;BME280;68900;52.134;5.420;2023-04-25T22:36:40;102089.00;;;5.51;71.90
79455;BME280;68900;52.134;5.420;2023-04-25T22:39:07;102091.09;;;5.46;72.31
79455;BME280;68900;52.134;5.420;2023-04-25T22:41:34;102084.31;;;5.40;72.54
79455;BME280;68900;52.134;5.420;2023-04-25T22:44:04;102088.78;;;5.40;72.30
79455;BME280;68900;52.134;5.420;2023-04-25T22:46:30;102091.63;;;5.37;71.88
79455;BME280;68900;52.134;5.420;2023-04-25T22:48:57;102090.41;;;5.42;71.88
79455;BME280;68900;52.134;5.420;2023-04-25T22:51:23;102093.53;;;5.34;72.02
79455;BME280;68900;52.134;5.420;2023-04-25T22:53:54;102099.31;;;5.27;72.74
79455;BME280;68900;52.134;5.420;2023-04-25T22:56:29;102092.75;;;5.17;72.26
79455;BME280;68900;52.134;5.420;2023-04-25T22:58:55;102092.03;;;5.13;72.70
79455;BME280;68900;52.134;5.420;2023-04-25T23:01:24;102101.97;;;5.11;72.55
79455;BME280;68900;52.134;5.420;2023-04-25T23:04:19;102094.28;;;5.05;72.79
79455;BME280;68900;52.134;5.420;2023-04-25T23:07:06;102091.00;;;5.00;73.00
79455;BME280;68900;52.134;5.420;2023-04-25T23:09:32;102095.66;;;4.97;72.84
79455;BME280;68900;52.134;5.420;2023-04-25T23:11:59;102098.59;;;4.92;73.17
79455;BME280;68900;52.134;5.420;2023-04-25T23:14:27;102105.94;;;4.88;73.50
79455;BME280;68900;52.134;5.420;2023-04-25T23:16:54;102099.91;;;4.85;74.24
79455;BME280;68900;52.134;5.420;2023-04-25T23:19:21;102102.56;;;4.85;74.58
79455;BME280;68900;52.134;5.420;2023-04-25T23:21:47;102107.72;;;4.88;74.25
79455;BME280;68900;52.134;5.420;2023-04-25T23:24:14;102102.56;;;4.85;74.29
79455;BME280;68900;52.134;5.420;2023-04-25T23:26:41;102109.72;;;4.84;74.08
79455;BME280;68900;52.134;5.420;2023-04-25T23:29:11;102104.88;;;4.91;74.36
79455;BME280;68900;52.134;5.420;2023-04-25T23:31:38;102105.59;;;4.95;74.05
79455;BME280;68900;52.134;5.420;2023-04-25T23:34:05;102108.03;;;4.99;74.50
79455;BME280;68900;52.134;5.420;2023-04-25T23:36:32;102105.50;;;4.96;74.44
79455;BME280;68900;52.134;5.420;2023-04-25T23:38:58;102108.03;;;4.99;74.91
79455;BME280;68900;52.134;5.420;2023-04-25T23:41:27;102100.69;;;5.03;74.59
79455;BME280;68900;52.134;5.420;2023-04-25T23:43:57;102107.50;;;5.08;74.31
79455;BME280;68900;52.134;5.420;2023-04-25T23:46:24;102097.56;;;5.10;74.31
79455;BME280;68900;52.134;5.420;2023-04-25T23:48:53;102091.91;;;5.16;74.49
79455;BME280;68900;52.134;5.420;2023-04-25T23:51:20;102100.59;;;5.20;74.37
79455;BME280;68900;52.134;5.420;2023-04-25T23:53:47;102094.06;;;5.25;74.79